createdAt,value
2023-02-25T00:02:02.576Z,0.70
2023-02-25T00:04:32.341Z,0.60
2023-02-25T00:07:01.122Z,0.60
2023-02-25T00:09:30.785Z,0.60
2023-02-25T00:11:59.255Z,0.60
2023-02-25T00:14:28.519Z,0.60
2023-02-25T00:16:57.027Z,0.80
2023-02-25T00:19:26.576Z,0.60
2023-02-25T00:21:55.032Z,0.60
2023-02-25T00:24:23.415Z,0.40
2023-02-25T00:26:52.780Z,1.00
2023-02-25T00:29:21.558Z,0.70
2023-02-25T00:31:53.749Z,0.70
2023-02-25T00:34:22.762Z,0.60
2023-02-25T00:36:51.223Z,0.40
2023-02-25T00:39:19.752Z,0.70
2023-02-25T00:41:48.295Z,0.70
2023-02-25T00:44:16.897Z,0.60
2023-02-25T00:46:45.351Z,0.40
2023-02-25T00:49:26.975Z,0.40
2023-02-25T00:52:00.504Z,0.40
2023-02-25T00:54:29.524Z,0.50
2023-02-25T00:56:57.976Z,0.60
2023-02-25T00:59:26.424Z,0.40
2023-02-25T01:01:55.080Z,0.40
2023-02-25T01:04:23.661Z,0.10
2023-02-25T01:06:52.235Z,0.00
2023-02-25T01:09:21.445Z,-0.10
2023-02-25T01:11:50.767Z,0.20
2023-02-25T01:14:22.517Z,-0.10
2023-02-25T01:16:52.039Z,0.00
2023-02-25T01:19:24.516Z,-0.30
2023-02-25T01:21:55.690Z,0.00
2023-02-25T01:24:25.944Z,-0.40
2023-02-25T01:26:56.038Z,-0.10
2023-02-25T01:29:30.440Z,-0.50
2023-02-25T01:32:02.862Z,-0.30
2023-02-25T01:34:31.973Z,-0.30
2023-02-25T01:37:00.914Z,-0.60
2023-02-25T01:39:30.335Z,-0.70
2023-02-25T01:41:59.832Z,-0.70
2023-02-25T01:44:34.600Z,-0.80
2023-02-25T01:47:03.644Z,-0.70
2023-02-25T01:49:42.902Z,-0.70
2023-02-25T01:52:26.205Z,-0.80
2023-02-25T01:54:58.583Z,-0.70
2023-02-25T01:57:27.670Z,-0.80
2023-02-25T01:59:56.768Z,-0.70
2023-02-25T02:02:27.585Z,-0.90
2023-02-25T02:04:56.530Z,-0.90
2023-02-25T02:07:28.432Z,-1.00
2023-02-25T02:09:57.333Z,-0.70
2023-02-25T02:12:29.856Z,-0.70
2023-02-25T02:15:00.557Z,-0.80
2023-02-25T02:17:33.026Z,-0.70
2023-02-25T02:20:17.234Z,-0.90
2023-02-25T02:22:57.868Z,-0.90
2023-02-25T02:25:32.589Z,-1.00
2023-02-25T02:28:07.312Z,-0.90
2023-02-25T02:30:48.537Z,-0.90
2023-02-25T02:33:38.573Z,-0.90
2023-02-25T02:36:09.413Z,-0.90
2023-02-25T02:38:52.947Z,-1.00
2023-02-25T02:42:04.307Z,-1.10
2023-02-25T02:44:52.150Z,-1.00
2023-02-25T02:47:29.339Z,-1.10
2023-02-25T02:50:27.941Z,-1.00
2023-02-25T02:53:00.797Z,-1.00
2023-02-25T02:55:39.012Z,-1.30
2023-02-25T02:58:33.764Z,-0.80
2023-02-25T03:01:22.676Z,-1.30
2023-02-25T03:04:06.654Z,-1.20
2023-02-25T03:06:39.373Z,-1.20
2023-02-25T03:09:16.216Z,-1.10
2023-02-25T03:11:44.764Z,-1.20
2023-02-25T03:14:14.644Z,-1.10
2023-02-25T03:16:49.138Z,-1.20
2023-02-25T03:19:26.968Z,-1.20
2023-02-25T03:22:08.745Z,-1.50
2023-02-25T03:25:04.987Z,-1.20
2023-02-25T03:27:39.521Z,-1.20
2023-02-25T03:30:15.700Z,-1.10
2023-02-25T03:32:48.751Z,-1.40
2023-02-25T03:35:21.274Z,-1.50
2023-02-25T03:37:53.910Z,-1.40
2023-02-25T03:40:24.548Z,-1.10
2023-02-25T03:43:08.529Z,-1.40
2023-02-25T03:45:41.589Z,-1.30
2023-02-25T03:48:11.996Z,-1.40
2023-02-25T03:51:00.191Z,-1.60
2023-02-25T03:53:32.848Z,-1.50
2023-02-25T03:56:08.185Z,-1.40
2023-02-25T03:58:41.853Z,-1.50
2023-02-25T04:01:34.272Z,-1.50
2023-02-25T04:04:02.672Z,-1.50
2023-02-25T04:06:31.710Z,-1.60
2023-02-25T04:09:00.185Z,-1.50
2023-02-25T04:11:28.994Z,-1.40
2023-02-25T04:13:58.094Z,-1.80
2023-02-25T04:16:26.666Z,-1.80
2023-02-25T04:18:56.147Z,-1.80
2023-02-25T04:21:32.461Z,-1.70
2023-02-25T04:24:01.075Z,-1.60
2023-02-25T04:26:29.702Z,-1.70
2023-02-25T04:28:58.231Z,-1.80
2023-02-25T04:31:26.976Z,-1.60
2023-02-25T04:33:58.048Z,-1.60
2023-02-25T04:36:37.073Z,-1.70
2023-02-25T04:39:07.026Z,-1.80
2023-02-25T04:41:37.206Z,-1.60
2023-02-25T04:44:06.809Z,-1.50
2023-02-25T04:46:39.506Z,-1.40
2023-02-25T04:49:09.007Z,-1.80
2023-02-25T04:51:39.844Z,-1.50
2023-02-25T04:54:09.431Z,-1.60
2023-02-25T04:56:38.999Z,-1.50
2023-02-25T04:59:07.540Z,-1.50
2023-02-25T05:01:36.072Z,-1.60
2023-02-25T05:04:04.832Z,-1.70
2023-02-25T05:06:33.238Z,-1.60
2023-02-25T05:09:01.634Z,-1.60
2023-02-25T05:11:31.729Z,-1.70
2023-02-25T05:14:00.189Z,-1.80
2023-02-25T05:16:29.010Z,-1.70
2023-02-25T05:18:58.659Z,-1.80
2023-02-25T05:21:27.994Z,-1.50
2023-02-25T05:23:56.787Z,-1.50
2023-02-25T05:26:26.596Z,-2.10
2023-02-25T05:28:57.716Z,-1.90
2023-02-25T05:31:26.931Z,-1.90
2023-02-25T05:33:55.684Z,-1.60
2023-02-25T05:36:27.794Z,-1.90
2023-02-25T05:38:59.690Z,-1.60
2023-02-25T05:41:28.393Z,-1.80
2023-02-25T05:43:58.915Z,-1.70
2023-02-25T05:46:27.748Z,-2.00
2023-02-25T05:48:56.473Z,-1.80
2023-02-25T05:51:25.025Z,-2.00
2023-02-25T05:53:54.286Z,-2.00
2023-02-25T05:56:26.163Z,-2.20
2023-02-25T05:58:56.024Z,-1.80
2023-02-25T06:01:28.466Z,-1.90
2023-02-25T06:04:00.327Z,-2.10
2023-02-25T06:06:31.760Z,-1.90
2023-02-25T06:09:00.496Z,-2.10
2023-02-25T06:11:31.446Z,-1.80
2023-02-25T06:14:00.950Z,-1.90
2023-02-25T06:16:33.178Z,-2.20
2023-02-25T06:19:03.137Z,-2.10
2023-02-25T06:21:32.258Z,-2.00
2023-02-25T06:24:03.198Z,-2.20
2023-02-25T06:26:32.750Z,-2.10
2023-02-25T06:29:01.154Z,-2.30
2023-02-25T06:31:30.113Z,-2.10
2023-02-25T06:33:58.566Z,-2.10
2023-02-25T06:36:27.194Z,-2.30
2023-02-25T06:38:55.923Z,-2.20
2023-02-25T06:41:24.761Z,-2.30
2023-02-25T06:43:53.668Z,-2.20
2023-02-25T06:46:27.472Z,-2.20
2023-02-25T06:48:56.571Z,-2.20
2023-02-25T06:51:26.583Z,-2.30
2023-02-25T06:53:55.051Z,-2.40
2023-02-25T06:56:24.648Z,-2.50
2023-02-25T06:58:54.170Z,-2.30
2023-02-25T07:01:22.710Z,-2.30
2023-02-25T07:03:51.733Z,-2.50
2023-02-25T07:06:21.184Z,-2.50
2023-02-25T07:08:49.770Z,-2.30
2023-02-25T07:11:22.526Z,-2.50
2023-02-25T07:13:51.624Z,-2.50
2023-02-25T07:16:22.007Z,-2.50
2023-02-25T07:18:51.791Z,-2.50
2023-02-25T07:21:21.350Z,-2.50
2023-02-25T07:23:50.229Z,-2.50
2023-02-25T07:26:19.117Z,-2.50
2023-02-25T07:28:49.721Z,-2.50
2023-02-25T07:31:20.029Z,-2.70
2023-02-25T07:33:49.060Z,-2.70
2023-02-25T07:36:18.672Z,-2.70
2023-02-25T07:38:49.400Z,-2.70
2023-02-25T07:41:20.218Z,-2.70
2023-02-25T07:43:48.634Z,-2.70
2023-02-25T07:46:17.210Z,-2.70
2023-02-25T07:48:45.690Z,-2.70
2023-02-25T07:51:19.383Z,-2.70
2023-02-25T07:53:49.422Z,-2.70
2023-02-25T07:56:19.752Z,-2.70
2023-02-25T07:58:48.489Z,-2.70
2023-02-25T08:01:32.585Z,-2.70
2023-02-25T08:04:04.981Z,-2.90
2023-02-25T08:06:38.849Z,-3.00
2023-02-25T08:09:08.879Z,-3.10
2023-02-25T08:11:37.308Z,-2.90
2023-02-25T08:14:06.747Z,-2.90
2023-02-25T08:16:35.821Z,-2.90
2023-02-25T08:19:05.429Z,-2.90
2023-02-25T08:21:34.176Z,-2.90
2023-02-25T08:24:02.619Z,-2.90
2023-02-25T08:26:31.267Z,-2.90
2023-02-25T08:29:00.490Z,-2.90
2023-02-25T08:31:29.751Z,-3.00
2023-02-25T08:34:00.227Z,-3.10
2023-02-25T08:36:32.465Z,-2.90
2023-02-25T08:39:02.104Z,-2.90
2023-02-25T08:41:31.408Z,-2.90
2023-02-25T08:44:02.083Z,-2.90
2023-02-25T08:46:33.014Z,-3.40
2023-02-25T08:49:01.795Z,-3.20
2023-02-25T08:51:37.361Z,-3.10
2023-02-25T08:54:15.417Z,-2.90
2023-02-25T08:56:45.538Z,-2.90
2023-02-25T08:59:16.054Z,-3.10
2023-02-25T09:01:49.554Z,-3.10
2023-02-25T09:04:23.584Z,-3.50
2023-02-25T09:06:54.866Z,-3.10
2023-02-25T09:09:23.678Z,-3.40
2023-02-25T09:11:52.971Z,-3.20
2023-02-25T09:14:21.800Z,-3.30
2023-02-25T09:16:50.388Z,-3.40
2023-02-25T09:19:19.911Z,-3.20
2023-02-25T09:21:48.957Z,-3.10
2023-02-25T09:24:18.528Z,-3.30
2023-02-25T09:26:48.067Z,-3.30
2023-02-25T09:29:16.701Z,-3.40
2023-02-25T09:31:45.486Z,-3.40
2023-02-25T09:34:16.064Z,-3.40
2023-02-25T09:36:44.944Z,-3.30
2023-02-25T09:39:14.510Z,-3.50
2023-02-25T09:41:48.976Z,-3.30
2023-02-25T09:44:48.294Z,-3.50
2023-02-25T09:47:27.431Z,-3.50
2023-02-25T09:50:12.807Z,-3.30
2023-02-25T09:52:43.386Z,-3.40
2023-02-25T09:55:25.200Z,-3.40
2023-02-25T09:58:22.974Z,-3.50
2023-02-25T10:00:59.294Z,-3.80
2023-02-25T10:03:49.573Z,-3.50
2023-02-25T10:06:44.015Z,-4.00
2023-02-25T10:09:21.674Z,-3.50
2023-02-25T10:12:01.809Z,-3.90
2023-02-25T10:14:41.265Z,-3.50
2023-02-25T10:17:31.773Z,-3.80
2023-02-25T10:20:25.747Z,-3.70
2023-02-25T10:23:04.399Z,-3.70
2023-02-25T10:25:38.650Z,-4.00
2023-02-25T10:28:15.173Z,-4.20
2023-02-25T10:31:00.103Z,-4.00
2023-02-25T10:33:32.621Z,-4.20
2023-02-25T10:36:33.001Z,-4.00
2023-02-25T10:39:01.798Z,-4.20
2023-02-25T10:41:31.333Z,-4.20
2023-02-25T10:43:59.719Z,-4.40
2023-02-25T10:46:40.391Z,-4.10
2023-02-25T10:49:24.340Z,-4.00
2023-02-25T10:52:04.190Z,-4.40
2023-02-25T10:54:45.171Z,-4.60
2023-02-25T10:57:19.130Z,-4.60
2023-02-25T10:59:48.870Z,-4.60
2023-02-25T11:02:32.240Z,-4.60
2023-02-25T11:05:00.655Z,-4.60
2023-02-25T11:07:36.925Z,-4.60
2023-02-25T11:10:10.194Z,-4.60
2023-02-25T11:12:45.156Z,-4.60
2023-02-25T11:15:23.897Z,-4.80
2023-02-25T11:18:00.741Z,-4.80
2023-02-25T11:20:33.101Z,-4.80
2023-02-25T11:23:02.127Z,-4.80
2023-02-25T11:25:46.234Z,-4.80
2023-02-25T11:28:38.396Z,-5.00
2023-02-25T11:31:30.562Z,-4.90
2023-02-25T11:34:08.030Z,-5.00
2023-02-25T11:36:39.493Z,-4.90
2023-02-25T11:39:18.467Z,-4.90
2023-02-25T11:41:49.325Z,-4.90
2023-02-25T11:44:45.628Z,-5.00
2023-02-25T11:47:32.948Z,-5.00
2023-02-25T11:50:27.220Z,-4.90
2023-02-25T11:53:37.253Z,-5.00
2023-02-25T11:56:12.558Z,-5.10
2023-02-25T11:59:11.243Z,-5.30
2023-02-25T12:01:51.758Z,-5.00
2023-02-25T12:04:56.089Z,-5.20
2023-02-25T12:08:12.826Z,-5.50
2023-02-25T12:10:44.772Z,-5.50
2023-02-25T12:13:51.337Z,-5.30
2023-02-25T12:16:58.048Z,-5.70
2023-02-25T12:20:10.933Z,-5.50
2023-02-25T12:23:16.529Z,-5.50
2023-02-25T12:25:51.098Z,-5.60
2023-02-25T12:28:49.876Z,-5.70
2023-02-25T12:32:06.306Z,-5.50
2023-02-25T12:35:00.823Z,-5.80
2023-02-25T12:37:35.306Z,-5.40
2023-02-25T12:40:22.534Z,-5.50
2023-02-25T12:43:09.635Z,-5.20
2023-02-25T12:46:14.016Z,-5.30
2023-02-25T12:48:54.837Z,-5.50
2023-02-25T12:51:45.718Z,-5.50
2023-02-25T12:54:39.829Z,-5.60
2023-02-25T12:57:38.977Z,-5.90
2023-02-25T13:00:28.853Z,-5.70
2023-02-25T13:03:22.704Z,-5.30
2023-02-25T13:06:01.625Z,-5.70
2023-02-25T13:08:51.435Z,-5.30
2023-02-25T13:12:09.524Z,-5.50
2023-02-25T13:14:41.237Z,-5.20
2023-02-25T13:17:44.165Z,-5.30
2023-02-25T13:20:37.863Z,-5.00
2023-02-25T13:23:21.922Z,-5.10
2023-02-25T13:26:16.444Z,-5.20
2023-02-25T13:29:21.742Z,-5.00
2023-02-25T13:31:56.392Z,-4.90
2023-02-25T13:35:02.119Z,-4.90
2023-02-25T13:38:09.521Z,-4.90
2023-02-25T13:41:02.773Z,-5.00
2023-02-25T13:43:55.023Z,-5.00
2023-02-25T13:46:53.773Z,-5.00
2023-02-25T13:49:52.888Z,-4.90
2023-02-25T13:52:29.549Z,-5.00
2023-02-25T13:55:25.200Z,-4.90
2023-02-25T13:58:20.996Z,-4.90
2023-02-25T14:01:08.069Z,-5.20
2023-02-25T14:04:24.760Z,-5.20
2023-02-25T14:07:14.503Z,-5.30
2023-02-25T14:09:58.141Z,-5.40
2023-02-25T14:13:12.434Z,-5.80
2023-02-25T14:15:48.971Z,-6.00
2023-02-25T14:18:23.154Z,-6.10
2023-02-25T14:21:19.822Z,-6.00
2023-02-25T14:24:03.591Z,-6.40
2023-02-25T14:26:55.347Z,-6.20
2023-02-25T14:29:57.139Z,-6.50
2023-02-25T14:32:36.425Z,-6.70
2023-02-25T14:35:34.920Z,-6.70
2023-02-25T14:38:16.457Z,-6.80
2023-02-25T14:41:29.669Z,-6.70
2023-02-25T14:44:08.522Z,-6.90
2023-02-25T14:46:41.157Z,-6.70
2023-02-25T14:49:42.017Z,-7.10
2023-02-25T14:52:34.555Z,-7.00
2023-02-25T14:55:23.375Z,-7.20
2023-02-25T14:58:10.023Z,-7.20
2023-02-25T15:00:53.267Z,-7.10
2023-02-25T15:03:52.543Z,-7.20
2023-02-25T15:06:55.022Z,-7.40
2023-02-25T15:09:40.017Z,-7.50
2023-02-25T15:12:38.846Z,-7.40
2023-02-25T15:15:36.339Z,-7.50
2023-02-25T15:18:54.070Z,-7.20
2023-02-25T15:21:47.843Z,-7.20
2023-02-25T15:24:28.606Z,-7.20
2023-02-25T15:26:58.464Z,-7.40
2023-02-25T15:29:36.099Z,-7.40
2023-02-25T15:32:23.747Z,-7.20
2023-02-25T15:35:16.473Z,-6.90
2023-02-25T15:37:57.075Z,-6.70
2023-02-25T15:40:34.730Z,-6.50
2023-02-25T15:43:27.249Z,-6.50
2023-02-25T15:46:24.442Z,-6.50
2023-02-25T15:49:32.648Z,-6.50
2023-02-25T15:52:04.594Z,-6.40
2023-02-25T15:54:33.493Z,-6.00
2023-02-25T15:57:11.113Z,-6.30
2023-02-25T15:59:51.484Z,-6.00
2023-02-25T16:02:34.022Z,-5.60
2023-02-25T16:05:14.419Z,-5.30
2023-02-25T16:08:10.835Z,-5.00
2023-02-25T16:10:47.146Z,-5.00
2023-02-25T16:13:20.730Z,-4.40
2023-02-25T16:15:53.832Z,-3.50
2023-02-25T16:18:38.667Z,-3.30
2023-02-25T16:21:29.699Z,-3.10
2023-02-25T16:24:00.953Z,-3.00
2023-02-25T16:26:45.201Z,-2.70
2023-02-25T16:29:36.989Z,-2.70
2023-02-25T16:32:27.462Z,-2.90
2023-02-25T16:35:19.846Z,-2.90
2023-02-25T16:37:54.763Z,-2.60
2023-02-25T16:40:31.055Z,-2.30
2023-02-25T16:43:00.277Z,-2.20
2023-02-25T16:45:55.942Z,-1.80
2023-02-25T16:48:32.837Z,-0.80
2023-02-25T16:51:32.774Z,0.60
2023-02-25T16:54:12.980Z,1.50
2023-02-25T16:56:44.369Z,2.60
2023-02-25T16:59:15.514Z,2.70
2023-02-25T17:02:04.637Z,3.20
2023-02-25T17:04:40.725Z,3.70
2023-02-25T17:07:23.395Z,3.30
2023-02-25T17:10:03.808Z,2.90
2023-02-25T17:12:46.377Z,3.20
2023-02-25T17:15:29.296Z,3.20
2023-02-25T17:18:12.964Z,2.30
2023-02-25T17:20:42.339Z,3.50
2023-02-25T17:23:13.769Z,4.20
2023-02-25T17:25:45.593Z,4.70
2023-02-25T17:28:29.073Z,6.10
2023-02-25T17:31:10.866Z,6.20
2023-02-25T17:33:51.891Z,6.10
2023-02-25T17:36:33.211Z,4.20
2023-02-25T17:39:05.089Z,6.30
2023-02-25T17:41:34.590Z,6.40
2023-02-25T17:44:03.255Z,4.90
2023-02-25T17:46:39.046Z,5.90
2023-02-25T17:49:19.359Z,6.60
2023-02-25T17:51:52.818Z,5.60
2023-02-25T17:54:25.105Z,6.00
2023-02-25T17:57:01.938Z,4.70
2023-02-25T17:59:40.649Z,4.60
2023-02-25T18:02:24.370Z,5.40
2023-02-25T18:05:02.821Z,5.40
2023-02-25T18:07:33.517Z,4.70
2023-02-25T18:10:03.152Z,5.60
2023-02-25T18:12:35.413Z,6.30
2023-02-25T18:15:16.477Z,5.30
2023-02-25T18:17:50.635Z,6.30
2023-02-25T18:20:36.369Z,7.70
2023-02-25T18:23:09.047Z,5.50
2023-02-25T18:25:49.072Z,6.50
2023-02-25T18:28:22.360Z,7.40
2023-02-25T18:30:51.933Z,9.10
2023-02-25T18:33:20.698Z,9.40
2023-02-25T18:35:50.267Z,8.20
2023-02-25T18:38:21.838Z,7.80
2023-02-25T18:40:52.617Z,7.70
2023-02-25T18:43:29.733Z,8.20
2023-02-25T18:45:58.481Z,7.60
2023-02-25T18:48:27.120Z,8.20
2023-02-25T18:50:59.391Z,7.90
2023-02-25T18:53:28.591Z,8.40
2023-02-25T18:55:58.701Z,6.80
2023-02-25T18:58:27.348Z,7.40
2023-02-25T19:00:58.189Z,8.70
2023-02-25T19:03:40.429Z,7.50
2023-02-25T19:06:10.693Z,9.20
2023-02-25T19:08:39.112Z,10.10
2023-02-25T19:11:08.341Z,9.20
2023-02-25T19:13:44.295Z,9.00
2023-02-25T19:16:12.823Z,9.10
2023-02-25T19:18:43.814Z,10.20
2023-02-25T19:21:15.894Z,10.50
2023-02-25T19:23:44.686Z,10.90
2023-02-25T19:26:13.372Z,9.40
2023-02-25T19:28:41.887Z,8.80
2023-02-25T19:31:10.471Z,8.10
2023-02-25T19:33:39.599Z,8.60
2023-02-25T19:36:09.533Z,8.90
2023-02-25T19:38:38.173Z,8.60
2023-02-25T19:41:07.366Z,8.50
2023-02-25T19:43:37.249Z,9.10
2023-02-25T19:46:09.566Z,9.30
2023-02-25T19:48:38.447Z,9.90
2023-02-25T19:51:08.707Z,7.60
2023-02-25T19:53:38.077Z,8.20
2023-02-25T19:56:08.699Z,7.90
2023-02-25T19:58:37.100Z,9.30
2023-02-25T20:01:08.851Z,8.20
2023-02-25T20:03:37.871Z,9.60
2023-02-25T20:06:12.284Z,7.90
2023-02-25T20:08:42.130Z,7.80
2023-02-25T20:11:11.898Z,9.30
2023-02-25T20:13:40.453Z,11.60
2023-02-25T20:16:10.041Z,12.40
2023-02-25T20:18:38.660Z,13.70
2023-02-25T20:21:07.750Z,13.80
2023-02-25T20:23:37.797Z,10.70
2023-02-25T20:26:09.180Z,10.60
2023-02-25T20:28:38.296Z,9.10
2023-02-25T20:31:09.143Z,6.90
2023-02-25T20:33:38.985Z,7.30
2023-02-25T20:36:33.618Z,7.30
2023-02-25T20:39:17.318Z,7.60
2023-02-25T20:41:47.916Z,6.90
2023-02-25T20:44:17.522Z,7.00
2023-02-25T20:46:46.843Z,6.70
2023-02-25T20:49:20.403Z,6.50
2023-02-25T20:51:49.700Z,5.60
2023-02-25T20:54:19.696Z,5.70
2023-02-25T20:56:49.120Z,5.60
2023-02-25T20:59:18.315Z,5.70
2023-02-25T21:01:46.901Z,5.90
2023-02-25T21:04:15.366Z,5.90
2023-02-25T21:06:44.038Z,6.00
2023-02-25T21:09:12.505Z,5.30
2023-02-25T21:11:41.062Z,5.10
2023-02-25T21:14:11.139Z,5.30
2023-02-25T21:16:40.282Z,5.30
2023-02-25T21:19:09.344Z,5.10
2023-02-25T21:21:40.600Z,5.30
2023-02-25T21:24:15.866Z,5.70
2023-02-25T21:26:45.268Z,5.40
2023-02-25T21:29:14.739Z,5.70
2023-02-25T21:31:43.988Z,5.90
2023-02-25T21:34:14.960Z,5.60
2023-02-25T21:36:43.634Z,5.60
2023-02-25T21:39:13.311Z,5.60
2023-02-25T21:41:44.515Z,5.60
2023-02-25T21:44:13.754Z,5.30
2023-02-25T21:46:42.570Z,5.60
2023-02-25T21:49:13.760Z,5.90
2023-02-25T21:51:42.222Z,5.90
2023-02-25T21:54:11.445Z,5.70
2023-02-25T21:56:41.388Z,5.30
2023-02-25T21:59:10.325Z,4.80
2023-02-25T22:01:41.680Z,4.50
2023-02-25T22:04:10.669Z,4.20
2023-02-25T22:06:39.426Z,4.60
2023-02-25T22:09:08.035Z,4.80
2023-02-25T22:11:38.994Z,4.50
2023-02-25T22:14:09.522Z,4.90
2023-02-25T22:16:39.548Z,4.50
2023-02-25T22:19:08.383Z,4.40
2023-02-25T22:21:37.158Z,4.70
2023-02-25T22:24:07.007Z,4.70
2023-02-25T22:26:37.448Z,4.70
2023-02-25T22:29:08.603Z,4.70
2023-02-25T22:31:38.014Z,4.40
2023-02-25T22:34:07.599Z,4.90
2023-02-25T22:36:35.975Z,4.60
2023-02-25T22:39:10.036Z,4.70
2023-02-25T22:41:38.907Z,4.90
2023-02-25T22:44:07.670Z,4.60
2023-02-25T22:46:40.654Z,5.30
2023-02-25T22:49:09.835Z,5.30
2023-02-25T22:51:44.033Z,5.00
2023-02-25T22:54:13.851Z,5.00
2023-02-25T22:56:43.560Z,5.00
2023-02-25T22:59:12.466Z,5.20
2023-02-25T23:01:41.464Z,5.30
2023-02-25T23:04:09.937Z,5.50
2023-02-25T23:06:44.016Z,5.90
2023-02-25T23:09:14.864Z,5.40
2023-02-25T23:11:45.026Z,5.50
2023-02-25T23:14:14.253Z,5.60
2023-02-25T23:16:46.023Z,5.50
2023-02-25T23:19:17.531Z,5.40
2023-02-25T23:21:46.879Z,5.20
2023-02-25T23:24:19.343Z,5.30
2023-02-25T23:26:51.210Z,5.00
2023-02-25T23:29:19.710Z,5.30
2023-02-25T23:31:49.683Z,5.30
2023-02-25T23:34:25.273Z,5.30
2023-02-25T23:36:57.713Z,5.30
2023-02-25T23:39:26.456Z,5.40
2023-02-25T23:41:55.267Z,5.60
2023-02-25T23:44:23.780Z,5.40
2023-02-25T23:46:52.302Z,5.50
2023-02-25T23:49:20.790Z,5.90
2023-02-25T23:51:50.052Z,5.70
2023-02-25T23:54:20.525Z,5.60
2023-02-25T23:56:50.730Z,5.40
2023-02-25T23:59:19.367Z,5.40
